sensor_id;sensor_type;location;lat;lon;timestamp;temperature;humidity
43520;DHT22;46848;51.980;5.918;2023-11-18T00:00:04;8.50;81.60
43520;DHT22;46848;51.980;5.918;2023-11-18T00:02:36;8.50;81.60
43520;DHT22;46848;51.980;5.918;2023-11-18T00:05:02;8.50;81.70
43520;DHT22;46848;51.980;5.918;2023-11-18T00:07:27;8.50;81.80
43520;DHT22;46848;51.980;5.918;2023-11-18T00:09:54;8.50;81.90
43520;DHT22;46848;51.980;5.918;2023-11-18T00:12:19;8.50;82.00
43520;DHT22;46848;51.980;5.918;2023-11-18T00:14:45;8.50;82.10
43520;DHT22;46848;51.980;5.918;2023-11-18T00:17:11;8.50;82.20
43520;DHT22;46848;51.980;5.918;2023-11-18T00:19:37;8.50;82.20
43520;DHT22;46848;51.980;5.918;2023-11-18T00:22:03;8.50;82.20
43520;DHT22;46848;51.980;5.918;2023-11-18T00:24:29;8.50;82.20
43520;DHT22;46848;51.980;5.918;2023-11-18T00:26:54;8.50;82.00
43520;DHT22;46848;51.980;5.918;2023-11-18T00:29:20;8.50;82.10
43520;DHT22;46848;51.980;5.918;2023-11-18T00:31:46;8.50;82.10
43520;DHT22;46848;51.980;5.918;2023-11-18T00:34:11;8.60;82.20
43520;DHT22;46848;51.980;5.918;2023-11-18T00:36:37;8.60;82.20
43520;DHT22;46848;51.980;5.918;2023-11-18T00:39:03;8.60;82.10
43520;DHT22;46848;51.980;5.918;2023-11-18T00:41:29;8.60;82.10
43520;DHT22;46848;51.980;5.918;2023-11-18T00:43:55;8.70;82.10
43520;DHT22;46848;51.980;5.918;2023-11-18T00:46:21;8.70;82.00
43520;DHT22;46848;51.980;5.918;2023-11-18T00:48:47;8.70;82.10
43520;DHT22;46848;51.980;5.918;2023-11-18T00:51:13;8.60;82.10
43520;DHT22;46848;51.980;5.918;2023-11-18T00:53:38;8.60;82.10
43520;DHT22;46848;51.980;5.918;2023-11-18T00:56:05;8.60;82.00
43520;DHT22;46848;51.980;5.918;2023-11-18T00:58:33;8.60;82.10
43520;DHT22;46848;51.980;5.918;2023-11-18T01:01:02;8.60;82.20
43520;DHT22;46848;51.980;5.918;2023-11-18T01:03:27;8.60;82.20
43520;DHT22;46848;51.980;5.918;2023-11-18T01:05:53;8.60;82.30
43520;DHT22;46848;51.980;5.918;2023-11-18T01:08:19;8.60;82.20
43520;DHT22;46848;51.980;5.918;2023-11-18T01:10:44;8.60;82.20
43520;DHT22;46848;51.980;5.918;2023-11-18T01:13:10;8.60;82.20
43520;DHT22;46848;51.980;5.918;2023-11-18T01:15:35;8.60;82.20
43520;DHT22;46848;51.980;5.918;2023-11-18T01:18:01;8.60;82.20
43520;DHT22;46848;51.980;5.918;2023-11-18T01:20:27;8.60;82.20
43520;DHT22;46848;51.980;5.918;2023-11-18T01:22:53;8.50;82.10
43520;DHT22;46848;51.980;5.918;2023-11-18T01:25:19;8.50;82.20
43520;DHT22;46848;51.980;5.918;2023-11-18T01:27:44;8.50;82.20
43520;DHT22;46848;51.980;5.918;2023-11-18T01:30:14;8.50;82.10
43520;DHT22;46848;51.980;5.918;2023-11-18T01:32:40;8.50;82.20
43520;DHT22;46848;51.980;5.918;2023-11-18T01:35:06;8.40;82.30
43520;DHT22;46848;51.980;5.918;2023-11-18T01:37:33;8.40;82.30
43520;DHT22;46848;51.980;5.918;2023-11-18T01:39:59;8.40;82.30
43520;DHT22;46848;51.980;5.918;2023-11-18T01:42:24;8.40;82.30
43520;DHT22;46848;51.980;5.918;2023-11-18T01:44:50;8.40;82.30
43520;DHT22;46848;51.980;5.918;2023-11-18T01:47:16;8.40;82.30
43520;DHT22;46848;51.980;5.918;2023-11-18T01:49:42;8.50;82.30
43520;DHT22;46848;51.980;5.918;2023-11-18T01:52:09;8.40;82.30
43520;DHT22;46848;51.980;5.918;2023-11-18T01:54:39;8.40;82.30
43520;DHT22;46848;51.980;5.918;2023-11-18T01:57:05;8.40;82.90
43520;DHT22;46848;51.980;5.918;2023-11-18T01:59:33;8.50;82.50
43520;DHT22;46848;51.980;5.918;2023-11-18T02:01:59;8.40;82.50
43520;DHT22;46848;51.980;5.918;2023-11-18T02:04:25;8.40;82.60
43520;DHT22;46848;51.980;5.918;2023-11-18T02:06:52;8.40;82.80
43520;DHT22;46848;51.980;5.918;2023-11-18T02:09:19;8.40;82.90
43520;DHT22;46848;51.980;5.918;2023-11-18T02:12:05;8.40;82.80
43520;DHT22;46848;51.980;5.918;2023-11-18T02:14:39;8.40;82.90
43520;DHT22;46848;51.980;5.918;2023-11-18T02:17:05;8.40;82.90
43520;DHT22;46848;51.980;5.918;2023-11-18T02:19:31;8.40;83.00
43520;DHT22;46848;51.980;5.918;2023-11-18T02:21:58;8.40;83.10
43520;DHT22;46848;51.980;5.918;2023-11-18T02:24:34;8.40;83.40
43520;DHT22;46848;51.980;5.918;2023-11-18T02:27:05;8.30;83.40
43520;DHT22;46848;51.980;5.918;2023-11-18T02:29:38;8.30;83.60
43520;DHT22;46848;51.980;5.918;2023-11-18T02:37:46;8.20;84.10
43520;DHT22;46848;51.980;5.918;2023-11-18T02:40:19;8.20;84.40
43520;DHT22;46848;51.980;5.918;2023-11-18T02:42:45;8.20;84.20
43520;DHT22;46848;51.980;5.918;2023-11-18T02:45:13;8.20;84.20
43520;DHT22;46848;51.980;5.918;2023-11-18T02:47:45;8.20;84.40
43520;DHT22;46848;51.980;5.918;2023-11-18T02:50:11;8.20;84.40
43520;DHT22;46848;51.980;5.918;2023-11-18T02:52:38;8.20;84.40
43520;DHT22;46848;51.980;5.918;2023-11-18T02:55:07;8.20;84.60
43520;DHT22;46848;51.980;5.918;2023-11-18T02:57:34;8.10;84.50
43520;DHT22;46848;51.980;5.918;2023-11-18T03:00:00;8.10;84.50
43520;DHT22;46848;51.980;5.918;2023-11-18T03:02:27;8.20;84.50
43520;DHT22;46848;51.980;5.918;2023-11-18T03:04:57;8.20;84.50
43520;DHT22;46848;51.980;5.918;2023-11-18T03:07:22;8.20;84.60
43520;DHT22;46848;51.980;5.918;2023-11-18T03:09:48;8.20;84.90
43520;DHT22;46848;51.980;5.918;2023-11-18T03:12:14;8.10;84.90
43520;DHT22;46848;51.980;5.918;2023-11-18T03:14:39;8.10;85.10
43520;DHT22;46848;51.980;5.918;2023-11-18T03:17:05;8.10;85.10
43520;DHT22;46848;51.980;5.918;2023-11-18T03:19:35;8.10;85.10
43520;DHT22;46848;51.980;5.918;2023-11-18T03:22:01;8.20;85.10
43520;DHT22;46848;51.980;5.918;2023-11-18T03:24:28;8.20;85.00
43520;DHT22;46848;51.980;5.918;2023-11-18T03:26:57;8.20;84.90
43520;DHT22;46848;51.980;5.918;2023-11-18T03:29:23;8.20;84.80
43520;DHT22;46848;51.980;5.918;2023-11-18T03:31:49;8.30;84.80
43520;DHT22;46848;51.980;5.918;2023-11-18T03:34:18;8.30;84.90
43520;DHT22;46848;51.980;5.918;2023-11-18T03:36:47;8.20;84.90
43520;DHT22;46848;51.980;5.918;2023-11-18T03:39:13;8.20;85.10
43520;DHT22;46848;51.980;5.918;2023-11-18T03:41:40;8.20;85.00
43520;DHT22;46848;51.980;5.918;2023-11-18T03:44:05;8.20;85.20
43520;DHT22;46848;51.980;5.918;2023-11-18T03:46:31;8.20;85.20
43520;DHT22;46848;51.980;5.918;2023-11-18T03:49:00;8.20;85.20
43520;DHT22;46848;51.980;5.918;2023-11-18T03:51:26;8.20;85.40
43520;DHT22;46848;51.980;5.918;2023-11-18T03:53:52;8.10;85.50
43520;DHT22;46848;51.980;5.918;2023-11-18T03:56:18;8.10;85.50
43520;DHT22;46848;51.980;5.918;2023-11-18T03:58:46;8.10;85.40
43520;DHT22;46848;51.980;5.918;2023-11-18T04:01:20;8.20;85.40
43520;DHT22;46848;51.980;5.918;2023-11-18T04:03:46;8.20;85.40
43520;DHT22;46848;51.980;5.918;2023-11-18T04:06:11;8.20;85.30
43520;DHT22;46848;51.980;5.918;2023-11-18T04:08:37;8.30;85.30
43520;DHT22;46848;51.980;5.918;2023-11-18T04:11:03;8.20;85.40
43520;DHT22;46848;51.980;5.918;2023-11-18T04:13:29;8.30;85.50
43520;DHT22;46848;51.980;5.918;2023-11-18T04:15:55;8.20;85.40
43520;DHT22;46848;51.980;5.918;2023-11-18T04:18:21;8.20;85.70
43520;DHT22;46848;51.980;5.918;2023-11-18T04:20:46;8.20;85.80
43520;DHT22;46848;51.980;5.918;2023-11-18T04:23:12;8.20;85.80
43520;DHT22;46848;51.980;5.918;2023-11-18T04:25:39;8.10;85.90
43520;DHT22;46848;51.980;5.918;2023-11-18T04:28:05;8.10;85.80
43520;DHT22;46848;51.980;5.918;2023-11-18T04:30:30;8.10;86.10
43520;DHT22;46848;51.980;5.918;2023-11-18T04:32:56;8.10;86.00
43520;DHT22;46848;51.980;5.918;2023-11-18T04:35:21;8.10;86.00
43520;DHT22;46848;51.980;5.918;2023-11-18T04:37:48;8.10;86.30
43520;DHT22;46848;51.980;5.918;2023-11-18T04:40:14;8.10;86.50
43520;DHT22;46848;51.980;5.918;2023-11-18T04:42:39;8.10;86.40
43520;DHT22;46848;51.980;5.918;2023-11-18T04:45:06;8.10;86.40
43520;DHT22;46848;51.980;5.918;2023-11-18T04:47:31;8.10;86.30
43520;DHT22;46848;51.980;5.918;2023-11-18T04:49:57;8.20;86.30
43520;DHT22;46848;51.980;5.918;2023-11-18T04:52:22;8.20;86.30
43520;DHT22;46848;51.980;5.918;2023-11-18T04:54:48;8.10;86.50
43520;DHT22;46848;51.980;5.918;2023-11-18T04:57:14;8.20;86.50
43520;DHT22;46848;51.980;5.918;2023-11-18T04:59:40;8.20;86.60
43520;DHT22;46848;51.980;5.918;2023-11-18T05:02:05;8.10;86.90
43520;DHT22;46848;51.980;5.918;2023-11-18T05:04:31;8.10;86.90
43520;DHT22;46848;51.980;5.918;2023-11-18T05:06:57;8.00;88.00
43520;DHT22;46848;51.980;5.918;2023-11-18T05:09:22;8.00;87.80
43520;DHT22;46848;51.980;5.918;2023-11-18T05:11:48;8.00;88.20
43520;DHT22;46848;51.980;5.918;2023-11-18T05:14:13;8.00;88.00
43520;DHT22;46848;51.980;5.918;2023-11-18T05:16:42;8.00;87.90
43520;DHT22;46848;51.980;5.918;2023-11-18T05:19:07;7.90;88.20
43520;DHT22;46848;51.980;5.918;2023-11-18T05:21:33;7.90;88.50
43520;DHT22;46848;51.980;5.918;2023-11-18T05:23:59;7.90;88.50
43520;DHT22;46848;51.980;5.918;2023-11-18T05:26:24;7.90;88.30
43520;DHT22;46848;51.980;5.918;2023-11-18T05:28:50;7.80;89.40
43520;DHT22;46848;51.980;5.918;2023-11-18T05:31:16;7.80;89.90
43520;DHT22;46848;51.980;5.918;2023-11-18T05:33:42;7.70;89.80
43520;DHT22;46848;51.980;5.918;2023-11-18T05:36:08;7.70;90.00
43520;DHT22;46848;51.980;5.918;2023-11-18T05:38:34;7.60;90.30
43520;DHT22;46848;51.980;5.918;2023-11-18T05:41:03;7.60;90.20
43520;DHT22;46848;51.980;5.918;2023-11-18T05:43:31;7.60;90.30
43520;DHT22;46848;51.980;5.918;2023-11-18T05:46:06;7.60;90.10
43520;DHT22;46848;51.980;5.918;2023-11-18T05:48:43;7.70;90.00
43520;DHT22;46848;51.980;5.918;2023-11-18T05:51:09;7.70;90.00
43520;DHT22;46848;51.980;5.918;2023-11-18T05:53:42;7.70;90.00
43520;DHT22;46848;51.980;5.918;2023-11-18T05:56:11;7.80;89.70
43520;DHT22;46848;51.980;5.918;2023-11-18T05:58:36;7.80;89.70
43520;DHT22;46848;51.980;5.918;2023-11-18T06:01:04;7.70;90.00
43520;DHT22;46848;51.980;5.918;2023-11-18T06:03:30;7.70;90.00
43520;DHT22;46848;51.980;5.918;2023-11-18T06:05:56;7.80;90.10
43520;DHT22;46848;51.980;5.918;2023-11-18T06:08:22;7.70;90.10
43520;DHT22;46848;51.980;5.918;2023-11-18T06:10:48;7.70;90.00
43520;DHT22;46848;51.980;5.918;2023-11-18T06:13:14;7.70;90.20
43520;DHT22;46848;51.980;5.918;2023-11-18T06:15:42;7.70;90.20
43520;DHT22;46848;51.980;5.918;2023-11-18T06:18:08;7.60;90.10
43520;DHT22;46848;51.980;5.918;2023-11-18T06:20:35;7.60;90.20
43520;DHT22;46848;51.980;5.918;2023-11-18T06:23:01;7.60;90.40
43520;DHT22;46848;51.980;5.918;2023-11-18T06:25:26;7.50;90.40
43520;DHT22;46848;51.980;5.918;2023-11-18T06:27:52;7.50;90.40
43520;DHT22;46848;51.980;5.918;2023-11-18T06:30:20;7.50;90.40
43520;DHT22;46848;51.980;5.918;2023-11-18T06:32:47;7.50;90.50
43520;DHT22;46848;51.980;5.918;2023-11-18T06:35:12;7.60;90.50
43520;DHT22;46848;51.980;5.918;2023-11-18T06:37:41;7.60;90.50
43520;DHT22;46848;51.980;5.918;2023-11-18T06:40:08;7.50;90.40
43520;DHT22;46848;51.980;5.918;2023-11-18T06:42:45;7.60;90.50
43520;DHT22;46848;51.980;5.918;2023-11-18T06:45:14;7.50;90.50
43520;DHT22;46848;51.980;5.918;2023-11-18T06:47:40;7.50;90.60
43520;DHT22;46848;51.980;5.918;2023-11-18T06:50:09;7.50;90.60
43520;DHT22;46848;51.980;5.918;2023-11-18T06:52:37;7.50;90.50
43520;DHT22;46848;51.980;5.918;2023-11-18T06:55:04;7.50;90.50
43520;DHT22;46848;51.980;5.918;2023-11-18T06:57:30;7.50;90.40
43520;DHT22;46848;51.980;5.918;2023-11-18T06:59:55;7.60;90.50
43520;DHT22;46848;51.980;5.918;2023-11-18T07:02:21;7.60;90.50
43520;DHT22;46848;51.980;5.918;2023-11-18T07:04:46;7.60;90.50
43520;DHT22;46848;51.980;5.918;2023-11-18T07:07:12;7.60;90.50
43520;DHT22;46848;51.980;5.918;2023-11-18T07:09:38;7.60;90.50
43520;DHT22;46848;51.980;5.918;2023-11-18T07:12:05;7.60;90.40
43520;DHT22;46848;51.980;5.918;2023-11-18T07:14:30;7.60;90.50
43520;DHT22;46848;51.980;5.918;2023-11-18T07:16:56;7.60;90.40
43520;DHT22;46848;51.980;5.918;2023-11-18T07:19:22;7.60;90.40
43520;DHT22;46848;51.980;5.918;2023-11-18T07:21:47;7.60;90.40
43520;DHT22;46848;51.980;5.918;2023-11-18T07:24:14;7.60;90.30
43520;DHT22;46848;51.980;5.918;2023-11-18T07:26:40;7.70;90.20
43520;DHT22;46848;51.980;5.918;2023-11-18T07:29:05;7.70;90.30
43520;DHT22;46848;51.980;5.918;2023-11-18T07:31:34;7.70;90.20
43520;DHT22;46848;51.980;5.918;2023-11-18T07:34:04;7.70;90.20
43520;DHT22;46848;51.980;5.918;2023-11-18T07:36:31;7.80;90.10
43520;DHT22;46848;51.980;5.918;2023-11-18T07:38:57;7.80;90.00
43520;DHT22;46848;51.980;5.918;2023-11-18T07:41:27;7.80;90.00
43520;DHT22;46848;51.980;5.918;2023-11-18T07:43:55;7.80;89.90
43520;DHT22;46848;51.980;5.918;2023-11-18T07:46:25;7.90;89.90
43520;DHT22;46848;51.980;5.918;2023-11-18T07:48:51;7.90;89.70
43520;DHT22;46848;51.980;5.918;2023-11-18T07:51:18;7.90;89.70
43520;DHT22;46848;51.980;5.918;2023-11-18T07:53:44;7.80;89.80
43520;DHT22;46848;51.980;5.918;2023-11-18T07:56:09;7.80;89.90
43520;DHT22;46848;51.980;5.918;2023-11-18T07:58:37;7.80;90.00
43520;DHT22;46848;51.980;5.918;2023-11-18T08:01:04;7.70;90.00
43520;DHT22;46848;51.980;5.918;2023-11-18T08:03:35;7.70;90.10
43520;DHT22;46848;51.980;5.918;2023-11-18T08:06:03;7.70;90.10
43520;DHT22;46848;51.980;5.918;2023-11-18T08:08:29;7.70;90.10
43520;DHT22;46848;51.980;5.918;2023-11-18T08:10:55;7.70;90.10
43520;DHT22;46848;51.980;5.918;2023-11-18T08:13:21;7.80;90.10
43520;DHT22;46848;51.980;5.918;2023-11-18T08:15:47;7.70;90.20
43520;DHT22;46848;51.980;5.918;2023-11-18T08:18:13;7.70;90.20
43520;DHT22;46848;51.980;5.918;2023-11-18T08:20:39;7.70;90.20
43520;DHT22;46848;51.980;5.918;2023-11-18T08:23:05;7.70;90.20
43520;DHT22;46848;51.980;5.918;2023-11-18T08:25:31;7.70;90.10
43520;DHT22;46848;51.980;5.918;2023-11-18T08:28:01;7.70;90.10
43520;DHT22;46848;51.980;5.918;2023-11-18T08:30:27;7.70;90.10
43520;DHT22;46848;51.980;5.918;2023-11-18T08:32:53;7.80;90.10
43520;DHT22;46848;51.980;5.918;2023-11-18T08:35:18;7.80;90.00
43520;DHT22;46848;51.980;5.918;2023-11-18T08:37:46;7.80;90.10
43520;DHT22;46848;51.980;5.918;2023-11-18T08:40:13;7.80;90.20
43520;DHT22;46848;51.980;5.918;2023-11-18T08:42:46;7.70;90.40
43520;DHT22;46848;51.980;5.918;2023-11-18T08:45:22;7.70;90.40
43520;DHT22;46848;51.980;5.918;2023-11-18T08:47:53;7.70;90.30
43520;DHT22;46848;51.980;5.918;2023-11-18T08:50:19;7.80;90.30
43520;DHT22;46848;51.980;5.918;2023-11-18T08:52:49;7.80;90.20
43520;DHT22;46848;51.980;5.918;2023-11-18T08:55:18;7.90;90.10
43520;DHT22;46848;51.980;5.918;2023-11-18T08:57:47;7.90;90.20
43520;DHT22;46848;51.980;5.918;2023-11-18T09:00:30;7.90;90.10
43520;DHT22;46848;51.980;5.918;2023-11-18T09:03:14;7.90;90.10
43520;DHT22;46848;51.980;5.918;2023-11-18T09:05:48;7.90;90.10
43520;DHT22;46848;51.980;5.918;2023-11-18T09:08:27;7.90;90.20
43520;DHT22;46848;51.980;5.918;2023-11-18T09:10:53;7.90;90.10
43520;DHT22;46848;51.980;5.918;2023-11-18T09:13:26;8.00;90.10
43520;DHT22;46848;51.980;5.918;2023-11-18T09:15:58;8.00;90.00
43520;DHT22;46848;51.980;5.918;2023-11-18T09:18:38;8.10;90.00
43520;DHT22;46848;51.980;5.918;2023-11-18T09:21:05;8.10;90.00
43520;DHT22;46848;51.980;5.918;2023-11-18T09:23:32;8.10;89.90
43520;DHT22;46848;51.980;5.918;2023-11-18T09:26:00;8.20;89.70
43520;DHT22;46848;51.980;5.918;2023-11-18T09:28:27;8.20;89.60
43520;DHT22;46848;51.980;5.918;2023-11-18T09:30:56;8.30;89.50
43520;DHT22;46848;51.980;5.918;2023-11-18T09:33:26;8.30;89.40
43520;DHT22;46848;51.980;5.918;2023-11-18T09:40:54;8.20;89.50
43520;DHT22;46848;51.980;5.918;2023-11-18T09:43:20;8.20;89.40
43520;DHT22;46848;51.980;5.918;2023-11-18T09:45:53;8.20;89.50
43520;DHT22;46848;51.980;5.918;2023-11-18T09:48:20;8.30;89.70
43520;DHT22;46848;51.980;5.918;2023-11-18T09:50:51;8.30;89.50
43520;DHT22;46848;51.980;5.918;2023-11-18T09:53:17;8.30;89.50
43520;DHT22;46848;51.980;5.918;2023-11-18T09:55:57;8.30;89.50
43520;DHT22;46848;51.980;5.918;2023-11-18T09:58:34;8.30;89.70
43520;DHT22;46848;51.980;5.918;2023-11-18T10:01:06;8.40;89.70
43520;DHT22;46848;51.980;5.918;2023-11-18T10:03:32;8.30;89.70
43520;DHT22;46848;51.980;5.918;2023-11-18T10:06:03;8.30;89.70
43520;DHT22;46848;51.980;5.918;2023-11-18T10:08:31;8.40;89.60
43520;DHT22;46848;51.980;5.918;2023-11-18T10:10:57;8.40;89.60
43520;DHT22;46848;51.980;5.918;2023-11-18T10:13:34;8.40;89.60
43520;DHT22;46848;51.980;5.918;2023-11-18T10:16:01;8.40;89.60
43520;DHT22;46848;51.980;5.918;2023-11-18T10:18:27;8.40;89.50
43520;DHT22;46848;51.980;5.918;2023-11-18T10:20:54;8.40;89.50
43520;DHT22;46848;51.980;5.918;2023-11-18T10:23:21;8.50;89.50
43520;DHT22;46848;51.980;5.918;2023-11-18T10:25:50;8.50;89.50
43520;DHT22;46848;51.980;5.918;2023-11-18T10:28:32;8.50;89.40
43520;DHT22;46848;51.980;5.918;2023-11-18T10:31:02;8.50;89.20
43520;DHT22;46848;51.980;5.918;2023-11-18T10:33:39;8.60;89.20
43520;DHT22;46848;51.980;5.918;2023-11-18T10:36:18;8.60;89.20
43520;DHT22;46848;51.980;5.918;2023-11-18T10:38:48;8.60;89.20
43520;DHT22;46848;51.980;5.918;2023-11-18T10:41:19;8.60;89.40
43520;DHT22;46848;51.980;5.918;2023-11-18T10:43:45;8.60;89.70
43520;DHT22;46848;51.980;5.918;2023-11-18T10:46:15;8.50;90.00
43520;DHT22;46848;51.980;5.918;2023-11-18T10:48:48;8.60;90.10
43520;DHT22;46848;51.980;5.918;2023-11-18T10:51:18;8.50;90.40
43520;DHT22;46848;51.980;5.918;2023-11-18T10:53:53;8.50;90.60
43520;DHT22;46848;51.980;5.918;2023-11-18T10:56:22;8.50;90.60
43520;DHT22;46848;51.980;5.918;2023-11-18T10:58:58;8.50;90.70
43520;DHT22;46848;51.980;5.918;2023-11-18T11:01:43;8.50;90.60
43520;DHT22;46848;51.980;5.918;2023-11-18T11:04:12;8.60;90.60
43520;DHT22;46848;51.980;5.918;2023-11-18T11:06:52;8.60;90.60
43520;DHT22;46848;51.980;5.918;2023-11-18T11:09:24;8.50;90.70
43520;DHT22;46848;51.980;5.918;2023-11-18T11:11:57;8.60;90.50
43520;DHT22;46848;51.980;5.918;2023-11-18T11:14:37;8.60;90.60
43520;DHT22;46848;51.980;5.918;2023-11-18T11:17:07;8.70;90.70
43520;DHT22;46848;51.980;5.918;2023-11-18T11:19:50;8.60;90.90
43520;DHT22;46848;51.980;5.918;2023-11-18T11:22:24;8.60;91.00
43520;DHT22;46848;51.980;5.918;2023-11-18T11:25:03;8.60;91.20
43520;DHT22;46848;51.980;5.918;2023-11-18T11:34:02;8.50;91.30
43520;DHT22;46848;51.980;5.918;2023-11-18T11:36:37;8.50;91.50
43520;DHT22;46848;51.980;5.918;2023-11-18T11:39:07;8.50;91.50
43520;DHT22;46848;51.980;5.918;2023-11-18T11:41:43;8.40;91.70
43520;DHT22;46848;51.980;5.918;2023-11-18T11:44:12;8.50;91.90
43520;DHT22;46848;51.980;5.918;2023-11-18T11:46:38;8.40;91.90
43520;DHT22;46848;51.980;5.918;2023-11-18T11:49:08;8.30;92.20
43520;DHT22;46848;51.980;5.918;2023-11-18T11:54:48;8.30;92.50
43520;DHT22;46848;51.980;5.918;2023-11-18T11:57:17;8.30;92.60
43520;DHT22;46848;51.980;5.918;2023-11-18T12:02:21;8.30;92.90
43520;DHT22;46848;51.980;5.918;2023-11-18T12:04:50;8.30;92.90
43520;DHT22;46848;51.980;5.918;2023-11-18T12:07:22;8.40;92.90
43520;DHT22;46848;51.980;5.918;2023-11-18T12:09:55;8.40;92.80
43520;DHT22;46848;51.980;5.918;2023-11-18T12:12:25;8.40;92.80
43520;DHT22;46848;51.980;5.918;2023-11-18T12:14:58;8.40;92.80
43520;DHT22;46848;51.980;5.918;2023-11-18T12:20:43;8.40;93.10
43520;DHT22;46848;51.980;5.918;2023-11-18T12:23:23;8.40;93.10
43520;DHT22;46848;51.980;5.918;2023-11-18T12:25:53;8.40;93.20
43520;DHT22;46848;51.980;5.918;2023-11-18T12:28:28;8.50;93.20
43520;DHT22;46848;51.980;5.918;2023-11-18T12:30:56;8.50;93.10
43520;DHT22;46848;51.980;5.918;2023-11-18T12:34:00;8.60;93.10
43520;DHT22;46848;51.980;5.918;2023-11-18T12:42:06;8.60;93.10
43520;DHT22;46848;51.980;5.918;2023-11-18T12:44:41;8.60;93.10
43520;DHT22;46848;51.980;5.918;2023-11-18T12:47:11;8.60;93.20
43520;DHT22;46848;51.980;5.918;2023-11-18T12:49:41;8.70;93.30
43520;DHT22;46848;51.980;5.918;2023-11-18T12:52:11;8.70;93.30
43520;DHT22;46848;51.980;5.918;2023-11-18T12:54:37;8.70;93.20
43520;DHT22;46848;51.980;5.918;2023-11-18T12:57:03;8.70;93.20
43520;DHT22;46848;51.980;5.918;2023-11-18T12:59:36;8.70;93.20
43520;DHT22;46848;51.980;5.918;2023-11-18T13:02:09;8.80;93.30
43520;DHT22;46848;51.980;5.918;2023-11-18T13:04:41;8.80;93.20
43520;DHT22;46848;51.980;5.918;2023-11-18T13:07:08;8.80;93.50
43520;DHT22;46848;51.980;5.918;2023-11-18T13:09:34;8.90;93.20
43520;DHT22;46848;51.980;5.918;2023-11-18T13:12:02;8.90;93.20
43520;DHT22;46848;51.980;5.918;2023-11-18T13:14:32;8.90;93.10
43520;DHT22;46848;51.980;5.918;2023-11-18T13:17:12;9.00;93.00
43520;DHT22;46848;51.980;5.918;2023-11-18T13:19:39;8.90;93.10
43520;DHT22;46848;51.980;5.918;2023-11-18T13:22:06;8.90;93.20
43520;DHT22;46848;51.980;5.918;2023-11-18T13:24:40;8.90;93.20
43520;DHT22;46848;51.980;5.918;2023-11-18T13:27:06;8.90;93.20
43520;DHT22;46848;51.980;5.918;2023-11-18T13:29:34;9.00;93.30
43520;DHT22;46848;51.980;5.918;2023-11-18T13:32:01;8.90;93.40
43520;DHT22;46848;51.980;5.918;2023-11-18T13:34:34;8.80;93.50
43520;DHT22;46848;51.980;5.918;2023-11-18T13:37:06;8.90;93.50
43520;DHT22;46848;51.980;5.918;2023-11-18T13:39:32;8.90;93.60
43520;DHT22;46848;51.980;5.918;2023-11-18T13:41:58;8.90;93.60
43520;DHT22;46848;51.980;5.918;2023-11-18T13:44:43;8.90;93.70
43520;DHT22;46848;51.980;5.918;2023-11-18T13:47:10;8.80;93.80
43520;DHT22;46848;51.980;5.918;2023-11-18T13:49:39;8.80;93.80
43520;DHT22;46848;51.980;5.918;2023-11-18T13:52:06;8.90;93.80
43520;DHT22;46848;51.980;5.918;2023-11-18T13:54:37;8.80;93.80
43520;DHT22;46848;51.980;5.918;2023-11-18T13:57:04;8.80;93.80
43520;DHT22;46848;51.980;5.918;2023-11-18T13:59:30;8.80;93.80
43520;DHT22;46848;51.980;5.918;2023-11-18T14:01:57;8.80;93.80
43520;DHT22;46848;51.980;5.918;2023-11-18T14:04:29;8.90;93.80
43520;DHT22;46848;51.980;5.918;2023-11-18T14:07:00;8.80;93.80
43520;DHT22;46848;51.980;5.918;2023-11-18T14:09:29;8.80;93.80
43520;DHT22;46848;51.980;5.918;2023-11-18T14:11:55;8.80;93.80
43520;DHT22;46848;51.980;5.918;2023-11-18T14:14:22;8.80;93.80
43520;DHT22;46848;51.980;5.918;2023-11-18T14:16:48;8.80;93.90
43520;DHT22;46848;51.980;5.918;2023-11-18T14:19:15;8.80;94.00
43520;DHT22;46848;51.980;5.918;2023-11-18T14:21:41;8.90;93.90
43520;DHT22;46848;51.980;5.918;2023-11-18T14:24:10;8.90;93.90
43520;DHT22;46848;51.980;5.918;2023-11-18T14:26:37;8.90;93.90
43520;DHT22;46848;51.980;5.918;2023-11-18T14:29:05;8.90;93.90
43520;DHT22;46848;51.980;5.918;2023-11-18T14:31:31;8.90;93.90
43520;DHT22;46848;51.980;5.918;2023-11-18T14:33:57;9.00;93.90
43520;DHT22;46848;51.980;5.918;2023-11-18T14:36:27;8.90;93.90
43520;DHT22;46848;51.980;5.918;2023-11-18T14:38:54;8.90;93.90
43520;DHT22;46848;51.980;5.918;2023-11-18T14:41:20;8.90;94.00
43520;DHT22;46848;51.980;5.918;2023-11-18T14:43:50;8.90;94.10
43520;DHT22;46848;51.980;5.918;2023-11-18T14:46:15;8.90;94.00
43520;DHT22;46848;51.980;5.918;2023-11-18T14:48:41;8.90;94.00
43520;DHT22;46848;51.980;5.918;2023-11-18T14:51:08;8.90;94.10
43520;DHT22;46848;51.980;5.918;2023-11-18T14:53:33;8.90;94.10
43520;DHT22;46848;51.980;5.918;2023-11-18T14:56:00;8.90;94.10
43520;DHT22;46848;51.980;5.918;2023-11-18T14:58:26;9.00;94.40
43520;DHT22;46848;51.980;5.918;2023-11-18T15:00:51;8.90;94.10
43520;DHT22;46848;51.980;5.918;2023-11-18T15:03:17;8.90;94.10
43520;DHT22;46848;51.980;5.918;2023-11-18T15:05:43;8.90;94.20
43520;DHT22;46848;51.980;5.918;2023-11-18T15:08:11;8.90;94.10
43520;DHT22;46848;51.980;5.918;2023-11-18T15:10:40;9.00;94.10
43520;DHT22;46848;51.980;5.918;2023-11-18T15:13:07;9.00;94.00
43520;DHT22;46848;51.980;5.918;2023-11-18T15:15:38;9.10;94.00
43520;DHT22;46848;51.980;5.918;2023-11-18T15:18:04;9.00;94.00
43520;DHT22;46848;51.980;5.918;2023-11-18T15:20:43;9.00;94.00
43520;DHT22;46848;51.980;5.918;2023-11-18T15:23:10;8.90;94.10
43520;DHT22;46848;51.980;5.918;2023-11-18T15:25:36;9.00;94.20
43520;DHT22;46848;51.980;5.918;2023-11-18T15:28:02;9.00;94.20
43520;DHT22;46848;51.980;5.918;2023-11-18T15:30:29;9.00;94.10
43520;DHT22;46848;51.980;5.918;2023-11-18T15:32:55;9.00;94.10
43520;DHT22;46848;51.980;5.918;2023-11-18T15:35:21;8.90;94.20
43520;DHT22;46848;51.980;5.918;2023-11-18T15:37:47;9.00;94.20
43520;DHT22;46848;51.980;5.918;2023-11-18T15:40:15;9.00;94.10
43520;DHT22;46848;51.980;5.918;2023-11-18T15:42:45;9.00;94.10
43520;DHT22;46848;51.980;5.918;2023-11-18T15:45:16;9.00;94.20
43520;DHT22;46848;51.980;5.918;2023-11-18T15:47:42;8.90;94.20
43520;DHT22;46848;51.980;5.918;2023-11-18T15:50:10;8.90;94.20
43520;DHT22;46848;51.980;5.918;2023-11-18T15:52:44;9.00;94.20
43520;DHT22;46848;51.980;5.918;2023-11-18T15:55:10;9.00;94.10
43520;DHT22;46848;51.980;5.918;2023-11-18T15:57:40;9.00;94.20
43520;DHT22;46848;51.980;5.918;2023-11-18T16:00:06;9.00;94.20
43520;DHT22;46848;51.980;5.918;2023-11-18T16:02:35;9.00;94.30
43520;DHT22;46848;51.980;5.918;2023-11-18T16:05:01;9.00;94.30
43520;DHT22;46848;51.980;5.918;2023-11-18T16:07:28;8.90;94.30
43520;DHT22;46848;51.980;5.918;2023-11-18T16:09:54;8.90;94.30
43520;DHT22;46848;51.980;5.918;2023-11-18T16:12:20;9.00;94.30
43520;DHT22;46848;51.980;5.918;2023-11-18T16:14:45;9.00;94.30
43520;DHT22;46848;51.980;5.918;2023-11-18T16:17:11;9.10;94.20
43520;DHT22;46848;51.980;5.918;2023-11-18T16:19:36;9.10;94.10
43520;DHT22;46848;51.980;5.918;2023-11-18T16:22:02;9.20;94.10